createdAt,value
2022-09-20T00:00:16.321Z,11.29
2022-09-20T00:05:42.429Z,11.45
2022-09-20T00:11:18.182Z,11.33
2022-09-20T00:16:43.408Z,11.15
2022-09-20T00:22:10.953Z,11.00
2022-09-20T00:27:35.151Z,11.49
2022-09-20T00:32:57.468Z,11.55
2022-09-20T00:38:19.279Z,11.61
2022-09-20T00:43:44.454Z,11.64
2022-09-20T00:49:24.742Z,11.68
2022-09-20T00:54:47.672Z,11.62
2022-09-20T01:00:12.179Z,11.56
2022-09-20T01:05:36.421Z,11.61
2022-09-20T01:10:58.548Z,11.55
2022-09-20T01:16:22.336Z,11.42
2022-09-20T01:21:46.063Z,11.54
2022-09-20T01:27:40.901Z,11.71
2022-09-20T01:33:11.882Z,11.76
2022-09-20T01:38:43.221Z,11.78
2022-09-20T01:44:22.862Z,11.39
2022-09-20T01:50:31.043Z,11.78
2022-09-20T01:56:03.800Z,11.43
2022-09-20T02:02:04.113Z,11.85
2022-09-20T02:07:55.901Z,11.51
2022-09-20T02:14:06.420Z,11.53
2022-09-20T02:19:51.642Z,11.83
2022-09-20T02:25:40.600Z,11.85
2022-09-20T02:31:45.356Z,11.88
2022-09-20T02:37:37.276Z,11.86
2022-09-20T02:43:19.902Z,11.87
2022-09-20T02:49:12.991Z,11.92
2022-09-20T02:54:40.881Z,11.91
2022-09-20T03:00:15.622Z,11.82
2022-09-20T03:06:08.486Z,11.88
2022-09-20T03:11:53.392Z,11.91
2022-09-20T03:17:49.387Z,11.87
2022-09-20T03:23:38.981Z,11.93
2022-09-20T03:29:23.173Z,11.97
2022-09-20T03:35:20.979Z,11.65
2022-09-20T03:40:49.348Z,12.00
2022-09-20T03:46:19.264Z,12.00
2022-09-20T03:51:59.641Z,11.80
2022-09-20T03:57:51.921Z,11.95
2022-09-20T04:03:22.872Z,12.01
2022-09-20T04:09:10.919Z,11.60
2022-09-20T04:15:00.501Z,11.70
2022-09-20T04:20:46.162Z,11.77
2022-09-20T04:26:12.858Z,12.06
2022-09-20T04:32:06.168Z,12.47
2022-09-20T04:37:33.972Z,12.41
2022-09-20T04:43:42.071Z,12.36
2022-09-20T04:49:42.572Z,12.34
2022-09-20T04:55:16.184Z,12.37
2022-09-20T05:01:05.665Z,12.41
2022-09-20T05:06:57.951Z,12.50
2022-09-20T05:12:44.912Z,12.59
2022-09-20T05:18:40.761Z,12.75
2022-09-20T05:24:29.161Z,12.78
2022-09-20T05:30:10.379Z,12.85
2022-09-20T05:36:14.151Z,13.21
2022-09-20T05:41:39.131Z,13.20
2022-09-20T05:47:19.641Z,12.78
2022-09-20T05:53:15.879Z,13.07
2022-09-20T05:59:07.227Z,12.98
2022-09-20T06:05:13.483Z,13.06
2022-09-20T06:10:48.239Z,13.29
2022-09-20T06:16:33.962Z,13.20
2022-09-20T06:22:07.001Z,13.28
2022-09-20T06:27:55.712Z,13.56
2022-09-20T06:33:29.891Z,13.24
2022-09-20T06:39:16.981Z,13.38
2022-09-20T06:44:50.632Z,12.83
2022-09-20T06:50:20.281Z,13.09
2022-09-20T06:55:53.567Z,13.40
2022-09-20T07:01:29.001Z,13.32
2022-09-20T07:07:09.251Z,13.22
2022-09-20T07:12:38.579Z,13.07
2022-09-20T07:18:04.668Z,13.50
2022-09-20T07:23:29.836Z,13.18
2022-09-20T07:28:56.762Z,13.53
2022-09-20T07:34:20.861Z,13.67
2022-09-20T07:39:43.271Z,13.94
2022-09-20T07:45:05.860Z,14.12
2022-09-20T07:50:27.871Z,14.26
2022-09-20T07:56:06.252Z,14.23
2022-09-20T08:01:28.132Z,14.18
2022-09-20T08:06:50.311Z,14.20
2022-09-20T08:17:56.820Z,14.10
2022-09-20T08:23:23.919Z,14.16
2022-09-20T08:28:48.285Z,13.97
2022-09-20T08:34:25.341Z,14.29
2022-09-20T08:39:58.325Z,13.83
2022-09-20T08:45:35.153Z,14.03
2022-09-20T08:50:58.440Z,14.22
2022-09-20T08:56:27.251Z,14.37
2022-09-20T09:01:56.238Z,14.36
2022-09-20T09:07:27.614Z,14.15
2022-09-20T09:12:52.691Z,14.49
2022-09-20T09:18:19.901Z,14.71
2022-09-20T09:23:52.135Z,14.34
2022-09-20T09:29:24.111Z,14.89
2022-09-20T09:34:46.131Z,15.06
2022-09-20T09:40:18.366Z,15.17
2022-09-20T09:45:40.864Z,15.15
2022-09-20T09:51:17.999Z,15.25
2022-09-20T09:57:11.811Z,15.26
2022-09-20T10:03:13.038Z,15.27
2022-09-20T10:08:56.407Z,15.13
2022-09-20T10:14:36.482Z,15.23
2022-09-20T10:20:23.831Z,15.52
2022-09-20T10:26:27.590Z,15.68
2022-09-20T10:32:19.562Z,15.44
2022-09-20T10:38:04.263Z,15.96
2022-09-20T10:43:42.889Z,15.64
2022-09-20T10:49:58.342Z,15.88
2022-09-20T10:55:58.099Z,15.82
2022-09-20T11:01:59.767Z,16.48
2022-09-20T11:07:32.845Z,16.19
2022-09-20T11:13:20.632Z,16.03
2022-09-20T11:19:05.280Z,15.63
2022-09-20T11:24:36.074Z,15.73
2022-09-20T11:30:14.279Z,16.11
2022-09-20T11:35:46.831Z,16.37
2022-09-20T11:41:20.722Z,16.18
2022-09-20T11:47:01.320Z,16.22
2022-09-20T11:52:44.926Z,16.41
2022-09-20T11:58:14.119Z,16.48
2022-09-20T12:03:42.219Z,16.32
2022-09-20T12:09:26.432Z,16.05
2022-09-20T12:14:57.300Z,16.00
2022-09-20T12:20:40.173Z,16.00
2022-09-20T12:26:23.979Z,15.82
2022-09-20T12:32:25.336Z,15.37
2022-09-20T12:37:49.081Z,15.46
2022-09-20T12:43:23.611Z,15.37
2022-09-20T12:48:45.702Z,15.12
2022-09-20T12:54:12.171Z,14.98
2022-09-20T12:59:47.781Z,15.19
2022-09-20T13:05:41.261Z,15.30
2022-09-20T13:11:10.195Z,15.69
2022-09-20T13:17:11.673Z,15.50
2022-09-20T13:22:44.112Z,15.37
2022-09-20T13:28:23.161Z,15.49
2022-09-20T13:33:44.992Z,15.38
2022-09-20T13:39:08.481Z,15.30
2022-09-20T13:44:34.970Z,15.27
2022-09-20T13:50:24.184Z,15.20
2022-09-20T13:55:47.054Z,15.14
2022-09-20T14:01:31.681Z,14.98
2022-09-20T14:06:57.021Z,14.95
2022-09-20T14:12:20.437Z,14.84
2022-09-20T14:17:43.144Z,14.77
2022-09-20T14:23:05.512Z,14.77
2022-09-20T14:28:29.113Z,14.54
2022-09-20T14:34:10.302Z,14.62
2022-09-20T14:39:44.854Z,14.10
2022-09-20T14:45:27.817Z,14.05
2022-09-20T14:51:18.572Z,14.42
2022-09-20T14:56:58.067Z,13.96
2022-09-20T15:02:21.996Z,14.04
2022-09-20T15:07:45.901Z,14.07
2022-09-20T15:13:11.779Z,13.75
2022-09-20T15:18:44.783Z,13.45
2022-09-20T15:24:10.101Z,13.54
2022-09-20T15:29:32.477Z,13.81
2022-09-20T15:34:54.612Z,13.69
2022-09-20T15:40:17.133Z,13.37
2022-09-20T15:45:57.941Z,13.43
2022-09-20T15:51:20.279Z,13.31
2022-09-20T15:56:42.900Z,13.23
2022-09-20T16:02:05.238Z,13.02
2022-09-20T16:07:27.332Z,13.02
2022-09-20T16:12:49.582Z,12.90
2022-09-20T16:18:30.161Z,12.83
2022-09-20T16:23:55.901Z,12.72
2022-09-20T16:29:18.621Z,12.17
2022-09-20T16:34:40.640Z,12.24
2022-09-20T16:40:03.121Z,12.26
2022-09-20T16:45:28.077Z,12.21
2022-09-20T16:50:55.520Z,11.89
2022-09-20T16:56:22.386Z,11.75
2022-09-20T17:01:47.203Z,11.79
2022-09-20T17:07:12.371Z,11.64
2022-09-20T17:12:41.952Z,11.79
2022-09-20T17:18:06.084Z,11.72
2022-09-20T17:23:27.993Z,11.97
2022-09-20T17:28:53.969Z,12.09
2022-09-20T17:34:18.073Z,12.10
2022-09-20T17:39:41.621Z,11.97
2022-09-20T17:45:03.955Z,12.10
2022-09-20T17:50:26.179Z,12.09
2022-09-20T17:55:59.963Z,12.02
2022-09-20T18:01:23.722Z,12.02
2022-09-20T18:06:48.395Z,11.98
2022-09-20T18:12:13.952Z,12.04
2022-09-20T18:17:39.842Z,12.03
2022-09-20T18:23:01.959Z,12.00
2022-09-20T18:28:24.141Z,11.94
2022-09-20T18:33:47.902Z,11.95
2022-09-20T18:39:10.011Z,11.85
2022-09-20T18:44:34.450Z,11.83
2022-09-20T18:49:56.862Z,11.42
2022-09-20T18:55:27.949Z,11.54
2022-09-20T19:01:04.816Z,11.54
2022-09-20T19:06:31.042Z,11.50
2022-09-20T19:12:02.083Z,11.33
2022-09-20T19:17:56.983Z,11.24
2022-09-20T19:23:42.024Z,11.18
2022-09-20T19:29:05.579Z,11.21
2022-09-20T19:34:31.024Z,11.16
2022-09-20T19:40:11.648Z,11.07
2022-09-20T19:45:56.151Z,11.02
2022-09-20T19:51:18.291Z,10.91
2022-09-20T19:57:14.084Z,10.83
2022-09-20T20:02:36.659Z,10.53
2022-09-20T20:08:19.722Z,10.60
2022-09-20T20:14:29.143Z,10.58
2022-09-20T20:20:15.801Z,10.52
2022-09-20T20:25:40.729Z,10.36
2022-09-20T20:31:03.522Z,10.04
2022-09-20T20:36:26.808Z,9.97
2022-09-20T20:41:53.162Z,9.54
2022-09-20T20:47:15.760Z,9.43
2022-09-20T20:52:38.402Z,9.87
2022-09-20T20:58:01.942Z,9.47
2022-09-20T21:03:24.942Z,9.70
2022-09-20T21:08:49.798Z,9.55
2022-09-20T21:14:13.323Z,9.29
2022-09-20T21:19:37.741Z,9.18
2022-09-20T21:25:05.882Z,9.26
2022-09-20T21:30:28.341Z,9.00
2022-09-20T21:35:50.761Z,9.15
2022-09-20T21:41:20.540Z,8.95
2022-09-20T21:46:43.182Z,9.03
2022-09-20T21:52:06.781Z,8.74
2022-09-20T22:03:14.282Z,8.67
2022-09-20T22:08:42.945Z,8.54
2022-09-20T22:14:05.481Z,8.92
2022-09-20T22:19:27.862Z,8.60
2022-09-20T22:24:50.091Z,8.46
2022-09-20T22:30:12.919Z,8.65
2022-09-20T22:35:35.459Z,8.38
2022-09-20T22:41:00.263Z,8.46
2022-09-20T22:46:24.562Z,8.66
2022-09-20T22:51:46.702Z,8.36
2022-09-20T22:57:09.081Z,8.09
2022-09-20T23:02:31.062Z,8.21
2022-09-20T23:07:53.783Z,8.22
2022-09-20T23:13:16.321Z,7.93
2022-09-20T23:18:38.621Z,7.30
2022-09-20T23:24:03.561Z,7.59
2022-09-20T23:29:26.214Z,7.45
2022-09-20T23:34:48.685Z,7.32
2022-09-20T23:40:11.494Z,7.32
2022-09-20T23:45:33.825Z,7.22
2022-09-20T23:50:57.165Z,7.22
2022-09-20T23:56:20.613Z,7.18
